sensor_id;sensor_type;location;lat;lon;timestamp;temperature;humidity
23329;DHT22;11836;51.050;3.716;2023-06-26T00:00:55;28.50;77.20
23329;DHT22;11836;51.050;3.716;2023-06-26T00:03:21;28.50;76.90
23329;DHT22;11836;51.050;3.716;2023-06-26T00:05:46;28.50;77.30
23329;DHT22;11836;51.050;3.716;2023-06-26T00:08:27;28.50;76.90
23329;DHT22;11836;51.050;3.716;2023-06-26T00:10:53;28.40;76.70
23329;DHT22;11836;51.050;3.716;2023-06-26T00:13:19;28.40;76.90
23329;DHT22;11836;51.050;3.716;2023-06-26T00:18:59;28.20;76.90
23329;DHT22;11836;51.050;3.716;2023-06-26T00:21:28;28.20;77.20
23329;DHT22;11836;51.050;3.716;2023-06-26T00:23:54;28.10;77.30
23329;DHT22;11836;51.050;3.716;2023-06-26T00:26:19;27.90;77.40
23329;DHT22;11836;51.050;3.716;2023-06-26T00:28:49;27.90;77.60
23329;DHT22;11836;51.050;3.716;2023-06-26T00:31:15;27.90;78.40
23329;DHT22;11836;51.050;3.716;2023-06-26T00:33:41;27.80;78.60
23329;DHT22;11836;51.050;3.716;2023-06-26T00:39:13;27.80;78.80
23329;DHT22;11836;51.050;3.716;2023-06-26T00:41:39;27.70;79.10
23329;DHT22;11836;51.050;3.716;2023-06-26T00:44:05;27.70;79.30
23329;DHT22;11836;51.050;3.716;2023-06-26T00:46:39;27.70;79.50
23329;DHT22;11836;51.050;3.716;2023-06-26T00:49:32;27.70;79.70
23329;DHT22;11836;51.050;3.716;2023-06-26T00:51:58;27.70;79.80
23329;DHT22;11836;51.050;3.716;2023-06-26T00:54:24;27.70;80.10
23329;DHT22;11836;51.050;3.716;2023-06-26T00:56:50;27.70;80.30
23329;DHT22;11836;51.050;3.716;2023-06-26T00:59:16;27.70;80.40
23329;DHT22;11836;51.050;3.716;2023-06-26T01:01:41;27.70;81.40
23329;DHT22;11836;51.050;3.716;2023-06-26T01:04:07;27.60;80.70
23329;DHT22;11836;51.050;3.716;2023-06-26T01:06:33;27.60;80.90
23329;DHT22;11836;51.050;3.716;2023-06-26T01:09:03;27.60;81.10
23329;DHT22;11836;51.050;3.716;2023-06-26T01:11:29;27.50;81.30
23329;DHT22;11836;51.050;3.716;2023-06-26T01:16:35;27.50;81.70
23329;DHT22;11836;51.050;3.716;2023-06-26T01:19:04;27.40;81.90
23329;DHT22;11836;51.050;3.716;2023-06-26T01:21:42;27.40;82.30
23329;DHT22;11836;51.050;3.716;2023-06-26T01:24:16;27.40;82.50
23329;DHT22;11836;51.050;3.716;2023-06-26T01:26:47;27.30;82.50
23329;DHT22;11836;51.050;3.716;2023-06-26T01:29:15;27.30;82.90
23329;DHT22;11836;51.050;3.716;2023-06-26T01:31:42;27.30;83.10
23329;DHT22;11836;51.050;3.716;2023-06-26T01:34:09;27.20;83.30
23329;DHT22;11836;51.050;3.716;2023-06-26T01:36:36;27.30;83.80
23329;DHT22;11836;51.050;3.716;2023-06-26T01:39:02;27.20;83.90
23329;DHT22;11836;51.050;3.716;2023-06-26T01:41:28;27.20;84.10
23329;DHT22;11836;51.050;3.716;2023-06-26T01:49:25;27.10;84.80
23329;DHT22;11836;51.050;3.716;2023-06-26T01:52:03;27.10;85.10
23329;DHT22;11836;51.050;3.716;2023-06-26T01:54:37;27.00;85.20
23329;DHT22;11836;51.050;3.716;2023-06-26T01:57:05;27.10;85.40
23329;DHT22;11836;51.050;3.716;2023-06-26T01:59:32;27.00;85.40
23329;DHT22;11836;51.050;3.716;2023-06-26T02:02:01;27.00;85.80
23329;DHT22;11836;51.050;3.716;2023-06-26T02:04:27;26.90;85.90
23329;DHT22;11836;51.050;3.716;2023-06-26T02:06:52;26.90;86.10
23329;DHT22;11836;51.050;3.716;2023-06-26T02:09:18;26.90;86.30
23329;DHT22;11836;51.050;3.716;2023-06-26T02:11:44;26.90;86.70
23329;DHT22;11836;51.050;3.716;2023-06-26T02:16:51;26.80;86.80
23329;DHT22;11836;51.050;3.716;2023-06-26T02:19:17;26.70;87.10
23329;DHT22;11836;51.050;3.716;2023-06-26T02:21:47;26.70;87.30
23329;DHT22;11836;51.050;3.716;2023-06-26T02:24:13;26.70;87.20
23329;DHT22;11836;51.050;3.716;2023-06-26T02:27:01;26.70;87.30
23329;DHT22;11836;51.050;3.716;2023-06-26T02:29:27;26.60;87.50
23329;DHT22;11836;51.050;3.716;2023-06-26T02:31:52;26.60;87.70
23329;DHT22;11836;51.050;3.716;2023-06-26T02:34:18;26.60;88.40
23329;DHT22;11836;51.050;3.716;2023-06-26T02:36:43;26.70;87.60
23329;DHT22;11836;51.050;3.716;2023-06-26T02:39:22;26.70;87.50
23329;DHT22;11836;51.050;3.716;2023-06-26T02:41:48;26.70;87.60
23329;DHT22;11836;51.050;3.716;2023-06-26T02:44:14;26.60;87.60
23329;DHT22;11836;51.050;3.716;2023-06-26T02:46:56;26.60;88.70
23329;DHT22;11836;51.050;3.716;2023-06-26T02:49:21;26.50;88.10
23329;DHT22;11836;51.050;3.716;2023-06-26T02:51:47;26.50;88.20
23329;DHT22;11836;51.050;3.716;2023-06-26T02:54:13;26.40;88.20
23329;DHT22;11836;51.050;3.716;2023-06-26T02:57:09;26.40;88.40
23329;DHT22;11836;51.050;3.716;2023-06-26T02:59:35;26.40;88.40
23329;DHT22;11836;51.050;3.716;2023-06-26T03:02:01;26.30;88.50
23329;DHT22;11836;51.050;3.716;2023-06-26T03:04:26;26.20;88.60
23329;DHT22;11836;51.050;3.716;2023-06-26T03:07:17;26.20;89.00
23329;DHT22;11836;51.050;3.716;2023-06-26T03:09:42;26.20;88.90
23329;DHT22;11836;51.050;3.716;2023-06-26T03:12:11;26.20;89.00
23329;DHT22;11836;51.050;3.716;2023-06-26T03:14:37;26.10;88.90
23329;DHT22;11836;51.050;3.716;2023-06-26T03:17:03;26.00;88.60
23329;DHT22;11836;51.050;3.716;2023-06-26T03:19:41;26.00;89.00
23329;DHT22;11836;51.050;3.716;2023-06-26T03:22:26;25.90;89.20
23329;DHT22;11836;51.050;3.716;2023-06-26T03:28:07;25.80;89.10
23329;DHT22;11836;51.050;3.716;2023-06-26T03:30:33;25.70;89.30
23329;DHT22;11836;51.050;3.716;2023-06-26T03:32:58;25.70;89.40
23329;DHT22;11836;51.050;3.716;2023-06-26T03:35:24;25.70;89.40
23329;DHT22;11836;51.050;3.716;2023-06-26T03:37:50;25.60;89.20
23329;DHT22;11836;51.050;3.716;2023-06-26T03:40:16;25.60;89.30
23329;DHT22;11836;51.050;3.716;2023-06-26T03:42:43;25.50;89.10
23329;DHT22;11836;51.050;3.716;2023-06-26T03:45:08;25.50;89.40
23329;DHT22;11836;51.050;3.716;2023-06-26T03:47:34;25.40;89.20
23329;DHT22;11836;51.050;3.716;2023-06-26T03:50:00;25.50;89.20
23329;DHT22;11836;51.050;3.716;2023-06-26T03:52:25;25.50;89.00
23329;DHT22;11836;51.050;3.716;2023-06-26T03:54:52;25.40;88.80
23329;DHT22;11836;51.050;3.716;2023-06-26T03:57:43;25.30;89.00
23329;DHT22;11836;51.050;3.716;2023-06-26T04:00:24;25.30;89.00
23329;DHT22;11836;51.050;3.716;2023-06-26T04:02:50;25.30;89.20
23329;DHT22;11836;51.050;3.716;2023-06-26T04:05:44;25.30;89.00
23329;DHT22;11836;51.050;3.716;2023-06-26T04:08:10;25.30;88.80
23329;DHT22;11836;51.050;3.716;2023-06-26T04:10:36;25.30;88.70
23329;DHT22;11836;51.050;3.716;2023-06-26T04:13:02;25.30;88.60
23329;DHT22;11836;51.050;3.716;2023-06-26T04:15:28;25.30;88.30
23329;DHT22;11836;51.050;3.716;2023-06-26T04:17:54;25.20;88.40
23329;DHT22;11836;51.050;3.716;2023-06-26T04:20:19;25.30;88.30
23329;DHT22;11836;51.050;3.716;2023-06-26T04:22:45;25.20;88.20
23329;DHT22;11836;51.050;3.716;2023-06-26T04:25:11;25.20;88.00
23329;DHT22;11836;51.050;3.716;2023-06-26T04:27:42;25.20;88.00
23329;DHT22;11836;51.050;3.716;2023-06-26T04:33:30;25.20;87.70
23329;DHT22;11836;51.050;3.716;2023-06-26T04:35:56;25.10;87.70
23329;DHT22;11836;51.050;3.716;2023-06-26T04:38:22;25.10;87.40
23329;DHT22;11836;51.050;3.716;2023-06-26T04:40:48;25.10;87.70
23329;DHT22;11836;51.050;3.716;2023-06-26T04:43:14;25.20;87.70
23329;DHT22;11836;51.050;3.716;2023-06-26T04:45:40;25.10;86.80
23329;DHT22;11836;51.050;3.716;2023-06-26T04:48:06;25.30;87.40
23329;DHT22;11836;51.050;3.716;2023-06-26T04:50:32;25.30;87.00
23329;DHT22;11836;51.050;3.716;2023-06-26T04:52:59;25.30;86.60
23329;DHT22;11836;51.050;3.716;2023-06-26T04:55:25;25.30;86.00
23329;DHT22;11836;51.050;3.716;2023-06-26T04:57:51;25.30;86.10
23329;DHT22;11836;51.050;3.716;2023-06-26T05:00:17;25.30;86.20
23329;DHT22;11836;51.050;3.716;2023-06-26T05:02:43;25.40;85.80
23329;DHT22;11836;51.050;3.716;2023-06-26T05:05:08;25.40;85.70
23329;DHT22;11836;51.050;3.716;2023-06-26T05:07:36;25.40;86.50
23329;DHT22;11836;51.050;3.716;2023-06-26T05:10:10;25.40;85.30
23329;DHT22;11836;51.050;3.716;2023-06-26T05:12:36;25.60;85.40
23329;DHT22;11836;51.050;3.716;2023-06-26T05:15:02;25.70;84.60
23329;DHT22;11836;51.050;3.716;2023-06-26T05:17:28;25.70;84.40
23329;DHT22;11836;51.050;3.716;2023-06-26T05:19:55;25.70;84.70
23329;DHT22;11836;51.050;3.716;2023-06-26T05:22:21;25.90;84.60
23329;DHT22;11836;51.050;3.716;2023-06-26T05:24:47;25.90;84.30
23329;DHT22;11836;51.050;3.716;2023-06-26T05:27:13;26.00;83.60
23329;DHT22;11836;51.050;3.716;2023-06-26T05:29:46;26.00;83.60
23329;DHT22;11836;51.050;3.716;2023-06-26T05:32:15;26.10;83.50
23329;DHT22;11836;51.050;3.716;2023-06-26T05:34:48;26.20;83.00
23329;DHT22;11836;51.050;3.716;2023-06-26T05:37:42;26.40;82.70
23329;DHT22;11836;51.050;3.716;2023-06-26T05:40:08;27.10;81.90
23329;DHT22;11836;51.050;3.716;2023-06-26T05:42:35;28.10;79.90
23329;DHT22;11836;51.050;3.716;2023-06-26T05:45:00;29.10;77.60
23329;DHT22;11836;51.050;3.716;2023-06-26T05:47:26;30.00;75.00
23329;DHT22;11836;51.050;3.716;2023-06-26T05:49:52;30.90;73.10
23329;DHT22;11836;51.050;3.716;2023-06-26T05:52:18;31.60;71.30
23329;DHT22;11836;51.050;3.716;2023-06-26T05:54:44;32.20;69.70
23329;DHT22;11836;51.050;3.716;2023-06-26T05:57:11;32.60;68.30
23329;DHT22;11836;51.050;3.716;2023-06-26T05:59:55;33.20;67.60
23329;DHT22;11836;51.050;3.716;2023-06-26T06:02:21;33.80;64.80
23329;DHT22;11836;51.050;3.716;2023-06-26T06:04:47;34.50;63.30
23329;DHT22;11836;51.050;3.716;2023-06-26T06:07:13;35.30;61.60
23329;DHT22;11836;51.050;3.716;2023-06-26T06:15:00;37.70;57.50
23329;DHT22;11836;51.050;3.716;2023-06-26T06:17:48;38.10;56.70
23329;DHT22;11836;51.050;3.716;2023-06-26T06:20:22;38.60;55.90
23329;DHT22;11836;51.050;3.716;2023-06-26T06:22:48;39.10;55.40
23329;DHT22;11836;51.050;3.716;2023-06-26T06:25:14;39.40;54.60
23329;DHT22;11836;51.050;3.716;2023-06-26T06:27:40;39.80;54.00
23329;DHT22;11836;51.050;3.716;2023-06-26T06:30:07;40.30;53.30
23329;DHT22;11836;51.050;3.716;2023-06-26T06:32:33;40.60;52.90
23329;DHT22;11836;51.050;3.716;2023-06-26T06:34:59;40.80;51.70
23329;DHT22;11836;51.050;3.716;2023-06-26T06:37:24;40.90;51.50
23329;DHT22;11836;51.050;3.716;2023-06-26T06:42:23;41.20;50.50
23329;DHT22;11836;51.050;3.716;2023-06-26T06:44:49;41.50;50.10
23329;DHT22;11836;51.050;3.716;2023-06-26T06:47:15;41.70;49.10
23329;DHT22;11836;51.050;3.716;2023-06-26T06:49:40;41.70;48.30
23329;DHT22;11836;51.050;3.716;2023-06-26T06:52:06;41.80;49.40
23329;DHT22;11836;51.050;3.716;2023-06-26T06:54:32;42.00;48.50
23329;DHT22;11836;51.050;3.716;2023-06-26T06:57:15;42.20;48.20
23329;DHT22;11836;51.050;3.716;2023-06-26T06:59:41;42.50;48.10
23329;DHT22;11836;51.050;3.716;2023-06-26T07:02:07;42.60;47.40
23329;DHT22;11836;51.050;3.716;2023-06-26T07:04:33;42.80;46.90
23329;DHT22;11836;51.050;3.716;2023-06-26T07:06:58;42.90;46.70
23329;DHT22;11836;51.050;3.716;2023-06-26T07:09:24;42.80;45.90
23329;DHT22;11836;51.050;3.716;2023-06-26T07:11:50;42.60;46.30
23329;DHT22;11836;51.050;3.716;2023-06-26T07:14:15;42.60;45.80
23329;DHT22;11836;51.050;3.716;2023-06-26T07:16:41;42.40;45.90
23329;DHT22;11836;51.050;3.716;2023-06-26T07:19:07;42.20;46.00
23329;DHT22;11836;51.050;3.716;2023-06-26T07:21:32;42.00;46.10
23329;DHT22;11836;51.050;3.716;2023-06-26T07:23:59;41.50;46.30
23329;DHT22;11836;51.050;3.716;2023-06-26T07:26:24;41.10;47.10
23329;DHT22;11836;51.050;3.716;2023-06-26T07:28:50;40.80;47.10
23329;DHT22;11836;51.050;3.716;2023-06-26T07:31:17;40.60;47.80
23329;DHT22;11836;51.050;3.716;2023-06-26T07:33:42;40.30;47.40
23329;DHT22;11836;51.050;3.716;2023-06-26T07:36:08;39.90;47.90
23329;DHT22;11836;51.050;3.716;2023-06-26T07:38:37;39.40;48.30
23329;DHT22;11836;51.050;3.716;2023-06-26T07:41:07;38.80;48.60
23329;DHT22;11836;51.050;3.716;2023-06-26T07:43:33;38.00;49.30
23329;DHT22;11836;51.050;3.716;2023-06-26T07:45:58;37.10;51.20
23329;DHT22;11836;51.050;3.716;2023-06-26T07:48:25;36.40;51.40
23329;DHT22;11836;51.050;3.716;2023-06-26T07:50:51;35.60;52.30
23329;DHT22;11836;51.050;3.716;2023-06-26T07:53:19;35.10;54.40
